Time;durP1;ratioP1;P1;durP2;ratioP2;P2;SDS_P1;SDS_P2;PMS_P1;PMS_P2;Temp;Humidity;BMP_temperature;BMP_pressure;BME280_temperature;BME280_humidity;BME280_pressure;Samples;Min_cycle;Max_cycle;Signal;HPM_P1;HPM_P2
2022/03/27 00:00:13;;;;;;;0.25;0.25;;;;;;;23.35;7.31;101192.03;5076564;28;20024;-72
2022/03/27 00:02:39;;;;;;;0.32;0.10;;;;;;;23.35;6.89;101194.75;5076651;28;20055;-72
2022/03/27 00:05:05;;;;;;;0.10;0.10;;;;;;;23.37;6.93;101200.78;5076574;28;20024;-72
2022/03/27 00:07:30;;;;;;;0.43;0.20;;;;;;;23.36;7.04;101206.47;5068471;28;20091;-72
2022/03/27 00:09:56;;;;;;;0.10;0.10;;;;;;;23.37;7.12;101200.78;5056852;28;20586;-72
2022/03/27 00:12:21;;;;;;;0.10;0.10;;;;;;;23.36;7.00;101204.56;5056703;28;20513;-72
2022/03/27 00:14:46;;;;;;;0.10;0.10;;;;;;;23.36;6.92;101201.03;5056618;28;20459;-72
2022/03/27 00:17:12;;;;;;;0.20;0.20;;;;;;;23.35;6.81;101202.09;5056679;28;20048;-71
2022/03/27 00:19:37;;;;;;;0.20;0.20;;;;;;;23.36;7.14;101199.09;5056333;28;20025;-72
2022/03/27 00:22:05;;;;;;;0.10;0.10;;;;;;;23.36;6.89;101199.09;5056285;28;20033;-72
2022/03/27 00:24:30;;;;;;;0.10;0.10;;;;;;;23.34;6.92;101201.28;5056583;28;20104;-72
2022/03/27 00:26:56;;;;;;;0.10;0.10;;;;;;;23.37;6.97;101210.84;5056211;28;20595;-72
2022/03/27 00:29:27;;;;;;;0.17;0.17;;;;;;;23.34;7.09;101214.91;5056159;28;20112;-74
2022/03/27 00:31:53;;;;;;;0.20;0.20;;;;;;;23.36;6.94;101212.75;5038556;28;20037;-74
2022/03/27 00:34:21;;;;;;;0.10;0.10;;;;;;;23.34;6.88;101217.63;5055854;28;20025;-74
2022/03/27 00:36:47;;;;;;;0.32;0.20;;;;;;;23.34;6.91;101228.53;5056258;28;20087;-74
2022/03/27 00:39:12;;;;;;;0.17;0.17;;;;;;;23.35;6.71;101226.63;5038435;28;20021;-73
2022/03/27 00:41:38;;;;;;;0.10;0.10;;;;;;;23.35;7.05;101240.28;5055776;28;20151;-74
2022/03/27 00:44:03;;;;;;;0.10;0.10;;;;;;;23.34;7.00;101242.19;5056220;28;20522;-74
2022/03/27 00:46:29;;;;;;;0.10;0.10;;;;;;;23.35;6.92;101245.72;5055908;28;20025;-74
2022/03/27 00:48:54;;;;;;;0.10;0.10;;;;;;;23.37;6.86;101238.94;5055727;28;20082;-74
2022/03/27 00:51:20;;;;;;;0.10;0.10;;;;;;;23.36;7.04;101252.84;5038183;28;20029;-73
2022/03/27 00:53:45;;;;;;;0.10;0.10;;;;;;;23.36;6.88;101256.38;5055995;28;20021;-73
2022/03/27 00:56:11;;;;;;;0.10;0.10;;;;;;;23.35;6.69;101252.03;5055972;28;20029;-73
2022/03/27 00:58:36;;;;;;;0.10;0.10;;;;;;;23.33;6.55;101256.88;5055845;28;20017;-73
2022/03/27 01:01:03;;;;;;;0.10;0.10;;;;;;;23.35;6.68;101262.94;5055855;28;20502;-72
2022/03/27 01:03:30;;;;;;;0.20;0.20;;;;;;;23.33;6.91;101254.16;5055546;28;20025;-72
2022/03/27 01:05:58;;;;;;;0.20;0.20;;;;;;;23.34;6.93;101279.53;5055481;28;20036;-72
2022/03/27 01:11:17;;;;;;;0.20;0.20;;;;;;;23.34;6.95;101285.81;5075780;28;20032;-72
2022/03/27 01:13:57;;;;;;;0.20;0.20;;;;;;;23.38;6.86;101294.31;5075716;28;20451;-72
2022/03/27 01:16:35;;;;;;;0.10;0.10;;;;;;;23.38;6.88;101289.69;5075292;28;20493;-72
2022/03/27 01:19:01;;;;;;;0.10;0.10;;;;;;;23.34;6.78;101288.53;5075400;28;20025;-72
2022/03/27 01:21:26;;;;;;;0.20;0.20;;;;;;;23.35;6.72;101292.09;5075552;28;20062;-72
2022/03/27 01:23:53;;;;;;;0.10;0.10;;;;;;;23.33;6.48;101300.53;5057606;28;20035;-72
2022/03/27 01:26:19;;;;;;;0.20;0.20;;;;;;;23.34;6.61;101299.44;5075412;28;20028;-72
2022/03/27 01:28:44;;;;;;;0.10;0.10;;;;;;;23.36;6.80;101296.47;5057682;28;20032;-72
2022/03/27 01:31:10;;;;;;;0.20;0.20;;;;;;;23.36;6.41;101301.94;5075648;28;20359;-72
2022/03/27 01:33:35;;;;;;;0.10;0.10;;;;;;;23.34;6.58;101299.44;5075353;28;20371;-72
2022/03/27 01:36:01;;;;;;;0.10;0.10;;;;;;;23.33;6.68;101307.88;5075183;28;20032;-72
2022/03/27 01:38:27;;;;;;;0.10;0.10;;;;;;;23.33;6.73;101314.16;5075095;28;20028;-73
2022/03/27 01:40:53;;;;;;;0.10;0.10;;;;;;;23.32;6.60;101315.25;5075240;28;20417;-73
2022/03/27 01:43:18;;;;;;;0.20;0.20;;;;;;;23.32;6.73;101312.53;5075236;28;20082;-72
2022/03/27 01:45:43;;;;;;;0.10;0.10;;;;;;;23.31;6.61;101320.94;5075102;28;20029;-72
2022/03/27 01:48:09;;;;;;;0.13;0.13;;;;;;;23.33;6.40;101325.06;5057207;28;20482;-72
2022/03/27 01:50:34;;;;;;;0.10;0.10;;;;;;;23.32;6.39;101334.34;5074737;28;20032;-72
2022/03/27 01:53:00;;;;;;;0.20;0.20;;;;;;;23.33;6.49;101322.34;5073786;28;20036;-72
2022/03/27 01:55:25;;;;;;;0.20;0.20;;;;;;;23.31;6.54;101326.41;5074459;28;20024;-74
2022/03/27 01:57:51;;;;;;;0.13;0.13;;;;;;;23.34;6.32;101339.53;5074848;28;20021;-74
2022/03/27 02:00:16;;;;;;;0.10;0.10;;;;;;;23.33;6.38;101346.88;5074444;28;20429;-73
2022/03/27 02:02:42;;;;;;;0.13;0.13;;;;;;;23.32;6.34;101337.06;5075098;28;20027;-74
2022/03/27 02:05:08;;;;;;;0.10;0.10;;;;;;;23.33;6.30;101338.69;5075016;28;20508;-73
2022/03/27 02:07:37;;;;;;;0.20;0.20;;;;;;;23.29;6.26;101340.28;5057189;28;20056;-74
2022/03/27 02:10:06;;;;;;;0.20;0.20;;;;;;;23.31;6.33;101346.31;5075328;28;20048;-74
2022/03/27 02:12:35;;;;;;;0.10;0.10;;;;;;;23.31;6.15;101348.22;5076282;28;20025;-74
2022/03/27 02:15:04;;;;;;;0.20;0.20;;;;;;;23.28;6.20;101344.06;5057595;28;20544;-74
2022/03/27 02:17:30;;;;;;;0.20;0.20;;;;;;;23.32;6.22;101350.69;5075122;28;20055;-74
2022/03/27 02:19:55;;;;;;;0.60;0.20;;;;;;;23.31;6.07;101354.50;5074628;28;20020;-74
2022/03/27 02:22:21;;;;;;;0.17;0.17;;;;;;;23.32;6.12;101360.75;5074484;28;20033;-73
2022/03/27 02:24:46;;;;;;;0.30;0.30;;;;;;;23.31;6.16;101365.41;5075302;28;20045;-74
2022/03/27 02:27:12;;;;;;;0.17;0.17;;;;;;;23.33;6.22;101368.69;5074131;28;20078;-74
2022/03/27 02:29:37;;;;;;;0.10;0.10;;;;;;;23.33;5.93;101360.53;5074280;28;20029;-74
2022/03/27 02:32:03;;;;;;;0.13;0.13;;;;;;;23.32;6.09;101372.53;5074308;28;20028;-73
2022/03/27 02:34:28;;;;;;;0.20;0.20;;;;;;;23.29;5.73;101372.19;5073880;28;20467;-74
2022/03/27 02:36:54;;;;;;;0.10;0.10;;;;;;;23.31;5.90;101370.84;5074158;28;20032;-74
2022/03/27 02:39:20;;;;;;;0.20;0.20;;;;;;;23.30;5.89;101371.94;5073971;28;20051;-73
2022/03/27 02:41:45;;;;;;;0.22;0.13;;;;;;;23.30;5.79;101371.09;5074053;28;20025;-73
2022/03/27 02:44:12;;;;;;;0.20;0.20;;;;;;;23.33;5.87;101371.44;5074009;28;20502;-73
2022/03/27 02:46:38;;;;;;;0.10;0.10;;;;;;;23.30;5.62;101368.38;5073686;28;20471;-72
2022/03/27 02:49:03;;;;;;;0.13;0.13;;;;;;;23.31;5.75;101370.03;5073670;28;20034;-73
2022/03/27 02:51:28;;;;;;;0.20;0.20;;;;;;;23.31;5.76;101365.41;5073977;28;20024;-72
2022/03/27 02:53:54;;;;;;;0.22;0.20;;;;;;;23.32;5.50;101371.69;5073847;28;20078;-72
2022/03/27 02:56:19;;;;;;;0.17;0.17;;;;;;;23.31;5.64;101368.13;5073915;28;20078;-72
2022/03/27 02:58:45;;;;;;;0.13;0.13;;;;;;;23.31;5.60;101362.69;5056042;28;20515;-72
2022/03/27 03:01:10;;;;;;;0.10;0.10;;;;;;;23.31;5.62;101370.03;5073835;28;20463;-72
2022/03/27 03:03:36;;;;;;;0.17;0.17;;;;;;;23.29;5.53;101370.28;5073372;28;20027;-73
2022/03/27 03:06:01;;;;;;;0.10;0.10;;;;;;;23.28;5.68;101365.91;5073703;28;20027;-72
2022/03/27 03:08:27;;;;;;;0.10;0.10;;;;;;;23.27;5.55;101364.25;5055519;28;20055;-72
2022/03/27 03:10:53;;;;;;;0.20;0.20;;;;;;;23.29;5.58;101364.84;5073748;28;20067;-72
2022/03/27 03:13:18;;;;;;;0.20;0.20;;;;;;;23.29;5.64;101364.84;5073715;28;20052;-72
2022/03/27 03:15:44;;;;;;;0.10;0.10;;;;;;;23.28;5.44;101360.44;5073721;28;20025;-72
2022/03/27 03:18:10;;;;;;;0.20;0.20;;;;;;;23.28;5.34;101371.34;5073586;28;20029;-73
2022/03/27 03:20:36;;;;;;;0.20;0.20;;;;;;;23.28;5.38;101374.06;5073340;28;20027;-72
2022/03/27 03:23:01;;;;;;;0.10;0.10;;;;;;;23.29;5.54;101383.91;5074186;28;20040;-72
2022/03/27 03:25:27;;;;;;;0.13;0.13;;;;;;;23.28;5.55;101374.06;5073568;28;20095;-72
2022/03/27 03:27:52;;;;;;;0.20;0.20;;;;;;;23.28;5.55;101376.81;5073276;28;20421;-72
2022/03/27 03:30:18;;;;;;;0.10;0.10;;;;;;;23.29;5.37;101373.00;5073236;28;20032;-72
2022/03/27 03:32:43;;;;;;;0.17;0.17;;;;;;;23.26;5.56;101384.41;5073809;28;20024;-72
2022/03/27 03:35:09;;;;;;;0.10;0.10;;;;;;;23.29;5.33;101383.91;5055551;28;20106;-72
2022/03/27 03:37:35;;;;;;;0.10;0.10;;;;;;;23.30;5.49;101382.00;5073829;28;20497;-72
2022/03/27 03:40:01;;;;;;;0.13;0.13;;;;;;;23.28;5.49;101387.72;5073426;28;20470;-72
2022/03/27 03:42:26;;;;;;;0.38;0.20;;;;;;;23.28;5.49;101393.16;5073135;28;20055;-73
2022/03/27 03:44:52;;;;;;;0.20;0.20;;;;;;;23.27;5.70;101386.09;5073359;28;20055;-74
2022/03/27 03:47:17;;;;;;;0.20;0.20;;;;;;;23.27;5.31;101391.53;5073428;28;20486;-74
2022/03/27 03:49:42;;;;;;;0.20;0.10;;;;;;;23.28;5.55;101392.34;5073445;28;20447;-74
2022/03/27 03:52:08;;;;;;;0.10;0.10;;;;;;;23.28;5.60;101398.63;5073354;28;20356;-73
2022/03/27 03:54:34;;;;;;;0.20;0.20;;;;;;;23.27;5.38;101394.25;5073053;28;20413;-73
2022/03/27 03:57:04;;;;;;;0.20;0.20;;;;;;;23.26;5.36;101400.78;5073314;28;20043;-73
2022/03/27 03:59:33;;;;;;;0.10;0.10;;;;;;;23.28;5.57;101395.06;5072948;28;20061;-73
2022/03/27 04:01:58;;;;;;;0.20;0.20;;;;;;;23.26;5.48;101392.59;5073256;28;20378;-74
2022/03/27 04:04:23;;;;;;;0.20;0.20;;;;;;;23.28;5.44;101392.34;5073243;28;20029;-74
2022/03/27 04:06:49;;;;;;;0.10;0.10;;;;;;;23.29;5.62;101403.00;5072909;28;20027;-74
2022/03/27 04:09:14;;;;;;;0.20;0.20;;;;;;;23.27;5.40;101396.13;5073172;28;20028;-74
2022/03/27 04:11:40;;;;;;;0.20;0.20;;;;;;;23.28;5.61;101401.34;5072899;28;20375;-73
2022/03/27 04:14:05;;;;;;;0.17;0.15;;;;;;;23.26;5.29;101408.97;5072751;28;20029;-74
2022/03/27 04:16:31;;;;;;;0.13;0.13;;;;;;;23.25;5.58;101399.97;5074393;28;20020;-74
2022/03/27 04:18:56;;;;;;;0.40;0.20;;;;;;;23.26;5.65;101403.50;5076538;28;20467;-73
2022/03/27 04:21:21;;;;;;;0.20;0.20;;;;;;;23.27;5.54;101405.16;5058927;28;20521;-74
2022/03/27 04:23:47;;;;;;;0.20;0.20;;;;;;;23.27;5.62;101402.44;5076513;28;20024;-74
2022/03/27 04:26:12;;;;;;;0.20;0.20;;;;;;;23.27;5.61;101397.00;5076234;28;20028;-74
2022/03/27 04:28:38;;;;;;;0.20;0.20;;;;;;;23.27;5.64;101409.78;5076500;28;20032;-74
2022/03/27 04:31:03;;;;;;;0.10;0.10;;;;;;;23.26;5.56;101408.97;5076957;28;20017;-74
2022/03/27 04:33:29;;;;;;;0.10;0.10;;;;;;;23.26;5.77;101411.69;5076114;28;20021;-72
2022/03/27 04:35:54;;;;;;;0.20;0.20;;;;;;;23.28;5.49;101417.72;5063917;28;20021;-72
2022/03/27 04:38:20;;;;;;;0.20;0.20;;;;;;;23.27;5.58;101404.31;5056333;28;20459;-71
2022/03/27 04:40:45;;;;;;;0.20;0.20;;;;;;;23.24;5.62;101413.84;5056333;28;20078;-72
2022/03/27 04:43:11;;;;;;;0.17;0.17;;;;;;;23.28;5.57;101414.97;5056256;28;20035;-72
2022/03/27 04:45:36;;;;;;;0.17;0.17;;;;;;;23.25;5.70;101404.59;5055937;28;20079;-72
2022/03/27 04:48:01;;;;;;;0.20;0.20;;;;;;;23.25;5.78;101415.50;5055784;28;20025;-73
2022/03/27 04:50:27;;;;;;;0.20;0.20;;;;;;;23.27;5.67;101418.81;5056104;28;20032;-73
2022/03/27 04:52:52;;;;;;;0.10;0.10;;;;;;;23.26;5.88;101414.41;5055688;28;20083;-72
2022/03/27 04:55:18;;;;;;;0.20;0.20;;;;;;;23.23;5.84;101418.47;5056005;28;20071;-72
2022/03/27 04:57:43;;;;;;;0.20;0.20;;;;;;;23.26;5.84;101414.41;5056191;28;20029;-73
2022/03/27 05:00:10;;;;;;;0.10;0.10;;;;;;;23.24;5.86;101409.19;5056204;28;20025;-72
2022/03/27 05:02:39;;;;;;;0.32;0.20;;;;;;;23.25;5.78;101413.59;5056338;28;20108;-72
2022/03/27 05:05:06;;;;;;;0.20;0.20;;;;;;;23.25;5.86;101410.06;5055549;28;20049;-72
2022/03/27 05:07:32;;;;;;;0.10;0.10;;;;;;;23.26;6.02;101419.88;5063428;28;20047;-74
2022/03/27 05:09:59;;;;;;;0.17;0.17;;;;;;;23.27;5.89;101416.06;5075551;28;20482;-75
2022/03/27 05:12:24;;;;;;;0.20;0.20;;;;;;;23.28;5.95;101419.63;5075675;28;20029;-74
2022/03/27 05:14:50;;;;;;;0.10;0.10;;;;;;;23.29;5.92;101416.66;5075317;28;20589;-73
2022/03/27 05:17:15;;;;;;;0.20;0.20;;;;;;;23.29;6.02;101415.84;5075652;28;20027;-73
2022/03/27 05:19:41;;;;;;;0.20;0.20;;;;;;;23.30;6.00;101420.19;5075154;28;20029;-73
2022/03/27 05:22:07;;;;;;;0.20;0.20;;;;;;;23.30;5.96;101417.47;5075513;28;20021;-73
2022/03/27 05:24:33;;;;;;;0.10;0.10;;;;;;;23.29;6.13;101416.66;5075128;28;20036;-73
2022/03/27 05:26:58;;;;;;;0.20;0.20;;;;;;;23.33;6.23;101415.06;5075208;28;20021;-75
2022/03/27 05:29:24;;;;;;;0.30;0.30;;;;;;;23.33;6.21;101415.06;5075368;28;20047;-73
2022/03/27 05:31:51;;;;;;;0.10;0.10;;;;;;;23.33;6.17;101409.63;5074934;28;20390;-74
2022/03/27 05:34:17;;;;;;;0.10;0.10;;;;;;;23.34;6.36;101411.28;5074925;28;20021;-74
2022/03/27 05:36:42;;;;;;;0.10;0.10;;;;;;;23.36;6.29;101411.84;5075185;28;20074;-73
2022/03/27 05:39:08;;;;;;;0.17;0.17;;;;;;;23.35;6.29;101412.94;5074820;28;20024;-73
2022/03/27 05:41:33;;;;;;;0.20;0.20;;;;;;;23.38;6.34;101414.34;5074785;28;20032;-74
2022/03/27 05:43:59;;;;;;;0.20;0.20;;;;;;;23.39;6.06;101410.53;5057189;28;20028;-74
2022/03/27 05:46:24;;;;;;;0.20;0.20;;;;;;;23.33;6.27;101400.63;5074673;28;20043;-73
2022/03/27 05:48:49;;;;;;;0.15;0.15;;;;;;;23.40;6.40;101413.03;5074509;28;20024;-74
2022/03/27 05:51:15;;;;;;;0.22;0.22;;;;;;;23.41;6.28;101414.66;5074551;28;20036;-74
2022/03/27 05:53:40;;;;;;;0.10;0.10;;;;;;;23.42;6.14;101410.88;5074844;28;20025;-73
2022/03/27 05:56:06;;;;;;;0.20;0.20;;;;;;;23.43;6.32;101412.50;5074494;28;20020;-73
2022/03/27 05:58:31;;;;;;;0.20;0.20;;;;;;;23.44;6.35;101414.16;5074348;28;20025;-74
2022/03/27 06:00:58;;;;;;;0.10;0.10;;;;;;;23.47;6.32;101406.56;5074497;28;20032;-74
2022/03/27 06:03:24;;;;;;;0.20;0.20;;;;;;;23.50;6.32;101411.53;5074660;28;20020;-74
2022/03/27 06:05:49;;;;;;;0.20;0.20;;;;;;;23.50;6.58;101406.88;5074349;28;20085;-73
2022/03/27 06:08:15;;;;;;;0.10;0.10;;;;;;;23.52;6.54;101414.81;5074644;28;20052;-72
2022/03/27 06:10:41;;;;;;;0.17;0.17;;;;;;;23.53;6.55;101416.47;5056762;28;20029;-73
2022/03/27 06:13:07;;;;;;;0.10;0.10;;;;;;;23.53;6.39;101411.03;5074223;28;20048;-73
2022/03/27 06:15:32;;;;;;;0.20;0.20;;;;;;;23.55;6.60;101411.59;5074990;28;20079;-72
2022/03/27 06:17:58;;;;;;;0.20;0.20;;;;;;;23.56;6.51;101411.34;5056287;28;20028;-72
2022/03/27 06:20:25;;;;;;;0.15;0.15;;;;;;;23.56;6.47;101405.91;5074313;28;20025;-72
2022/03/27 06:22:51;;;;;;;0.30;0.20;;;;;;;23.57;6.36;101403.97;5074306;28;20028;-73
2022/03/27 06:25:18;;;;;;;0.17;0.17;;;;;;;23.57;6.72;101402.06;5074244;28;20039;-72
2022/03/27 06:27:44;;;;;;;0.10;0.10;;;;;;;23.62;6.64;101401.34;5074279;28;20087;-72
2022/03/27 06:30:15;;;;;;;0.20;0.20;;;;;;;23.62;6.78;101404.06;5074166;28;20430;-72
2022/03/27 06:32:42;;;;;;;0.17;0.17;;;;;;;23.61;6.67;101397.78;5056659;28;20084;-72
2022/03/27 06:35:08;;;;;;;0.20;0.20;;;;;;;23.62;6.75;101399.41;5074052;28;20028;-72
2022/03/27 06:37:34;;;;;;;0.20;0.20;;;;;;;23.67;6.69;101406.88;5074655;28;20039;-73
2022/03/27 06:39:59;;;;;;;0.52;0.20;;;;;;;23.68;6.68;101397.63;5073574;28;20032;-72
2022/03/27 06:42:28;;;;;;;0.20;0.20;;;;;;;23.69;6.42;101401.16;5074644;28;20028;-73
2022/03/27 06:44:54;;;;;;;0.20;0.20;;;;;;;23.70;6.71;101400.91;5074025;28;20028;-74
2022/03/27 06:47:20;;;;;;;0.20;0.20;;;;;;;23.71;6.64;101408.00;5073709;28;20024;-73
2022/03/27 06:49:46;;;;;;;0.20;0.20;;;;;;;23.74;6.69;101403.97;5074111;28;20039;-73
2022/03/27 06:52:11;;;;;;;0.20;0.20;;;;;;;23.73;6.69;101400.41;5074933;28;20112;-75
2022/03/27 06:54:37;;;;;;;0.20;0.20;;;;;;;23.73;6.58;101400.41;5075820;28;20115;-74
2022/03/27 06:57:02;;;;;;;0.20;0.20;;;;;;;23.76;6.65;101396.34;5075998;28;20029;-74
2022/03/27 07:03:01;;;;;;;0.20;0.20;;;;;;;23.75;6.71;101400.13;5076038;28;20047;-74
2022/03/27 07:05:02;;;;;;;;;;;;;;;24.07;6.42;101394.06;5075735;28;20087;-72
2022/03/27 07:07:28;;;;;;;0.10;0.10;;;;;;;23.87;6.55;101400.06;5073598;28;19923;-74
2022/03/27 07:09:54;;;;;;;0.10;0.10;;;;;;;23.84;6.33;101400.59;5073176;28;20029;-74
2022/03/27 07:12:19;;;;;;;0.17;0.17;;;;;;;23.85;6.37;101399.50;5073748;28;20025;-74
2022/03/27 07:14:46;;;;;;;0.20;0.20;;;;;;;23.84;6.49;101395.94;5073771;28;20024;-74
2022/03/27 07:17:15;;;;;;;0.10;0.10;;;;;;;23.86;6.48;101403.88;5074625;28;20025;-74
2022/03/27 07:19:40;;;;;;;0.22;0.10;;;;;;;23.82;6.52;101403.56;5055980;28;20048;-74
2022/03/27 07:22:06;;;;;;;0.20;0.20;;;;;;;23.83;6.36;101401.66;5073571;28;20118;-74
2022/03/27 07:24:31;;;;;;;0.20;0.20;;;;;;;23.86;6.25;101399.25;5073428;28;20025;-74
2022/03/27 07:26:57;;;;;;;0.10;0.10;;;;;;;23.84;5.96;101395.13;5073519;28;20037;-74
2022/03/27 07:29:23;;;;;;;0.13;0.13;;;;;;;23.79;6.35;101393.94;5073350;28;20029;-74
2022/03/27 07:31:49;;;;;;;1.15;0.20;;;;;;;23.86;6.35;101403.88;5073649;28;20418;-74
2022/03/27 07:34:16;;;;;;;0.20;0.20;;;;;;;23.88;6.64;101401.72;5056507;28;20025;-73
2022/03/27 07:36:41;;;;;;;0.13;0.13;;;;;;;23.88;6.48;101401.72;5073132;28;20025;-72
2022/03/27 07:39:07;;;;;;;0.10;0.10;;;;;;;23.87;6.17;101394.59;5073057;28;20028;-72
2022/03/27 07:41:32;;;;;;;0.28;0.20;;;;;;;23.89;6.35;101403.41;5055966;28;20036;-72
2022/03/27 07:43:58;;;;;;;0.20;0.20;;;;;;;23.90;6.19;101399.56;5073433;28;20017;-72
2022/03/27 07:46:23;;;;;;;0.20;0.20;;;;;;;23.89;6.18;101404.22;5073408;28;20466;-73
2022/03/27 07:48:49;;;;;;;0.38;0.20;;;;;;;23.84;6.15;101382.31;5073124;28;20539;-72
2022/03/27 07:51:15;;;;;;;0.20;0.20;;;;;;;23.91;6.09;101401.22;5075054;28;20028;-72
2022/03/27 07:53:40;;;;;;;0.10;0.10;;;;;;;23.92;6.30;101403.72;5077177;28;20028;-72
2022/03/27 07:56:05;;;;;;;0.22;0.20;;;;;;;23.93;6.06;101394.44;5076661;28;20025;-72
2022/03/27 07:58:31;;;;;;;0.22;0.22;;;;;;;23.92;5.93;101400.97;5076739;28;20036;-72
2022/03/27 08:00:56;;;;;;;0.10;0.10;;;;;;;23.94;6.42;101403.44;5076686;28;20029;-72
2022/03/27 08:03:22;;;;;;;0.20;0.20;;;;;;;23.93;6.31;101396.34;5076637;28;20032;-72
2022/03/27 08:05:47;;;;;;;0.10;0.10;;;;;;;23.94;5.97;101392.50;5076650;28;20024;-72
2022/03/27 08:08:12;;;;;;;0.10;0.10;;;;;;;23.97;6.07;101389.28;5062910;28;20051;-72
2022/03/27 08:10:38;;;;;;;0.25;0.25;;;;;;;23.96;6.27;101387.66;5056959;28;20036;-72
2022/03/27 08:13:03;;;;;;;0.10;0.10;;;;;;;23.95;6.15;101386.81;5038740;28;20029;-73
2022/03/27 08:15:29;;;;;;;0.10;0.10;;;;;;;23.98;6.22;101391.75;5056547;28;20025;-74
2022/03/27 08:17:54;;;;;;;0.10;0.10;;;;;;;23.99;6.13;101387.97;5056832;28;20029;-74
2022/03/27 08:20:21;;;;;;;0.20;0.20;;;;;;;23.92;6.38;101379.16;5056714;28;20148;-73
2022/03/27 08:22:47;;;;;;;0.20;0.20;;;;;;;24.00;6.07;101384.13;5056387;28;20100;-74
2022/03/27 08:26:55;;;;;;;0.35;0.20;;;;;;;24.01;6.34;101379.53;5056560;28;20055;-74
2022/03/27 08:27:57;;;;;;;0.20;0.20;;;;;;;24.04;6.10;101384.47;5056093;28;20101;-74
2022/03/27 08:30:23;;;;;;;0.10;0.10;;;;;;;24.04;6.01;101383.63;5055339;28;20032;-74
2022/03/27 08:32:49;;;;;;;0.10;0.10;;;;;;;24.00;6.13;101378.69;5056556;28;20052;-73
2022/03/27 08:35:15;;;;;;;0.10;0.10;;;;;;;24.02;5.96;101369.41;5055967;28;20048;-73
2022/03/27 08:37:40;;;;;;;0.10;0.10;;;;;;;24.05;5.92;101367.00;5055977;28;20033;-73
2022/03/27 08:40:06;;;;;;;0.10;0.10;;;;;;;24.03;6.37;101355.53;5055942;28;20071;-73
2022/03/27 08:42:31;;;;;;;0.13;0.13;;;;;;;24.06;6.26;101355.00;5056456;28;20032;-73
2022/03/27 08:44:57;;;;;;;0.17;0.17;;;;;;;24.06;6.09;101359.63;5056279;28;20025;-73
2022/03/27 08:47:25;;;;;;;0.10;0.10;;;;;;;24.08;6.08;101354.75;5056191;28;20078;-74
2022/03/27 08:50:00;;;;;;;0.10;0.10;;;;;;;24.07;6.04;101356.66;5038162;28;20033;-74
2022/03/27 08:52:49;;;;;;;0.20;0.20;;;;;;;24.14;6.17;101345.53;5055806;28;20044;-74
2022/03/27 08:55:20;;;;;;;0.20;0.20;;;;;;;24.10;6.14;101344.41;5038254;28;20387;-74
2022/03/27 08:57:51;;;;;;;0.15;0.13;;;;;;;24.09;6.08;101338.09;5055633;28;20032;-74
2022/03/27 09:00:19;;;;;;;0.10;0.10;;;;;;;24.09;6.04;101350.94;5055904;28;20477;-74
2022/03/27 09:02:45;;;;;;;0.10;0.10;;;;;;;24.08;5.69;101339.19;5055551;28;20025;-74
2022/03/27 09:05:11;;;;;;;0.10;0.10;;;;;;;24.09;6.04;101332.63;5038138;28;20029;-73
2022/03/27 09:07:37;;;;;;;0.17;0.17;;;;;;;24.10;5.78;101339.75;5046596;28;20047;-73
2022/03/27 09:10:09;;;;;;;0.10;0.10;;;;;;;24.12;5.82;101336.78;5075746;28;20370;-74
2022/03/27 09:12:35;;;;;;;0.20;0.20;;;;;;;24.12;5.77;101334.88;5075765;28;20028;-72
2022/03/27 09:15:02;;;;;;;0.13;0.13;;;;;;;24.13;5.80;101333.78;5075694;28;20482;-72
2022/03/27 09:17:27;;;;;;;0.13;0.13;;;;;;;24.12;6.02;101326.66;5075873;28;20028;-71
2022/03/27 09:19:53;;;;;;;0.10;0.10;;;;;;;24.12;6.01;101321.22;5076503;28;20090;-72
2022/03/27 09:22:29;;;;;;;0.10;0.10;;;;;;;24.13;5.99;101322.88;5076043;28;20421;-72
2022/03/27 09:25:02;;;;;;;0.13;0.13;;;;;;;24.15;5.83;101326.16;5076211;28;20119;-72
2022/03/27 09:27:32;;;;;;;0.10;0.10;;;;;;;24.13;6.03;101317.41;5075974;28;20115;-72
2022/03/27 09:30:07;;;;;;;0.10;0.10;;;;;;;24.15;5.71;101319.88;5078524;28;20551;-71
2022/03/27 09:32:40;;;;;;;0.10;0.10;;;;;;;24.15;6.01;101328.91;5078954;28;20029;-73
2022/03/27 09:35:09;;;;;;;0.30;0.20;;;;;;;24.16;5.90;101319.63;5080429;28;20029;-72
2022/03/27 09:37:37;;;;;;;0.10;0.10;;;;;;;24.17;5.80;101315.00;5082692;28;20036;-72
2022/03/27 09:40:04;;;;;;;0.10;0.10;;;;;;;24.13;5.69;101314.69;5081225;28;20127;-71
2022/03/27 09:42:30;;;;;;;0.10;0.10;;;;;;;24.19;5.81;101304.63;5063885;28;20044;-72
2022/03/27 09:45:18;;;;;;;0.20;0.20;;;;;;;24.23;5.84;101304.94;5081232;28;20036;-72
2022/03/27 09:47:45;;;;;;;0.10;0.10;;;;;;;24.19;5.76;101290.97;5082573;28;20048;-72
2022/03/27 09:50:32;;;;;;;0.20;0.20;;;;;;;24.22;5.79;101293.19;5081399;28;20032;-72
2022/03/27 09:53:20;;;;;;;0.15;0.15;;;;;;;24.24;6.00;101284.75;5081331;28;20040;-72
2022/03/27 09:55:50;;;;;;;0.10;0.10;;;;;;;24.18;5.78;101281.97;5078681;28;20028;-72
2022/03/27 09:58:16;;;;;;;0.20;0.20;;;;;;;24.19;5.86;101283.59;5079027;28;20032;-72
2022/03/27 10:00:42;;;;;;;0.10;0.10;;;;;;;24.17;5.93;101274.84;5078447;28;20032;-72
2022/03/27 10:03:11;;;;;;;0.10;0.10;;;;;;;24.18;5.58;101281.97;5046714;28;20025;-71
2022/03/27 10:05:36;;;;;;;0.10;0.10;;;;;;;24.20;5.67;101278.97;5075190;28;20021;-71
2022/03/27 10:08:02;;;;;;;0.17;0.17;;;;;;;24.21;5.81;101277.06;5074317;28;20052;-73
2022/03/27 10:10:28;;;;;;;0.10;0.10;;;;;;;24.19;5.88;101266.41;5074660;28;20055;-73
2022/03/27 10:12:55;;;;;;;0.13;0.13;;;;;;;24.18;5.60;101256.53;5074925;28;20452;-74
2022/03/27 10:15:30;;;;;;;0.10;0.10;;;;;;;24.22;5.95;101265.06;5073691;28;20034;-73
2022/03/27 10:18:01;;;;;;;0.10;0.10;;;;;;;24.19;5.90;101261.75;5074502;28;20095;-73
2022/03/27 10:20:28;;;;;;;0.10;0.10;;;;;;;24.19;5.87;101260.94;5074435;28;20108;-74
2022/03/27 10:23:09;;;;;;;0.10;0.10;;;;;;;24.18;5.84;101248.34;5074099;28;20021;-74
2022/03/27 10:25:40;;;;;;;0.10;0.10;;;;;;;24.17;5.80;101247.53;5058460;28;20107;-74
2022/03/27 10:28:06;;;;;;;0.10;0.10;;;;;;;24.19;5.61;101250.81;5074288;28;20031;-73
2022/03/27 10:30:32;;;;;;;0.15;0.15;;;;;;;24.17;5.94;101252.19;5056727;28;20047;-73
2022/03/27 10:32:57;;;;;;;0.15;0.15;;;;;;;24.16;5.74;101245.91;5074227;28;20467;-74
2022/03/27 10:35:32;;;;;;;0.20;0.20;;;;;;;24.18;5.92;101237.44;5056068;28;20570;-74
2022/03/27 10:38:00;;;;;;;0.40;0.20;;;;;;;24.18;5.62;101232.81;5074464;28;20039;-73
2022/03/27 10:40:32;;;;;;;0.10;0.10;;;;;;;24.17;5.82;101239.34;5074400;28;20021;-73
2022/03/27 10:43:02;;;;;;;0.10;0.10;;;;;;;24.14;5.75;101233.56;5056678;28;20519;-73
2022/03/27 10:45:27;;;;;;;0.10;0.10;;;;;;;24.17;5.81;101231.16;5039486;28;20043;-73
2022/03/27 10:48:11;;;;;;;0.32;0.20;;;;;;;24.23;5.75;101231.19;5073752;28;20025;-74
2022/03/27 10:51:03;;;;;;;0.10;0.10;;;;;;;24.26;5.86;101227.97;5074236;28;20035;-73
2022/03/27 10:53:29;;;;;;;0.20;0.20;;;;;;;24.17;5.69;101225.69;5069903;28;20055;-73
2022/03/27 10:55:54;;;;;;;0.10;0.10;;;;;;;24.18;5.81;101218.31;5073675;28;20463;-73
2022/03/27 10:58:30;;;;;;;0.20;0.20;;;;;;;24.18;5.78;101219.16;5055625;28;20127;-73
2022/03/27 11:01:03;;;;;;;0.15;0.15;;;;;;;24.15;5.56;101219.66;5073547;28;20544;-73
2022/03/27 11:03:45;;;;;;;0.20;0.20;;;;;;;24.21;5.69;101209.59;5073906;28;20036;-74
2022/03/27 11:06:24;;;;;;;0.20;0.20;;;;;;;24.17;5.70;101205.75;5073779;28;20086;-73
2022/03/27 11:08:51;;;;;;;0.10;0.10;;;;;;;24.16;5.63;101204.94;5073315;28;20044;-72
2022/03/27 11:11:37;;;;;;;0.10;0.10;;;;;;;24.19;6.08;101190.75;5073305;28;20050;-72
2022/03/27 11:14:03;;;;;;;0.10;0.10;;;;;;;24.15;5.91;101197.81;4992097;28;20081;-72
2022/03/27 11:16:28;;;;;;;0.10;0.10;;;;;;;24.16;5.89;101193.16;4992183;28;20358;-72
2022/03/27 11:18:54;;;;;;;0.10;0.10;;;;;;;24.13;5.75;101180.88;4975938;28;20103;-72
2022/03/27 11:21:28;;;;;;;0.10;0.10;;;;;;;24.15;5.89;101178.69;4975961;28;20030;-72
2022/03/27 11:24:15;;;;;;;;;;;;;;;24.41;5.68;101170.72;4992497;28;20023;-69
2022/03/27 11:26:40;;;;;;;0.20;0.20;;;;;;;24.21;5.81;101160.44;4937499;29;19954;-72
2022/03/27 11:29:19;;;;;;;1.20;0.20;;;;;;;24.21;5.74;101154.97;4906983;29;20046;-73
2022/03/27 11:31:44;;;;;;;0.10;0.10;;;;;;;24.15;5.89;101151.41;4938505;29;20159;-72
2022/03/27 11:34:11;;;;;;;0.10;0.10;;;;;;;24.13;5.72;101148.09;4938622;29;20032;-71
2022/03/27 11:36:38;;;;;;;0.10;0.10;;;;;;;24.12;5.84;101146.44;4938786;29;20532;-71
2022/03/27 11:39:04;;;;;;;0.10;0.10;;;;;;;24.12;5.77;101140.97;4923694;29;20553;-73